sensor_id;sensor_type;location;lat;lon;timestamp;pressure;altitude;pressure_sealevel;temperature;humidity
57827;BME280;43656;57.746;11.780;2023-04-19T00:02:17;103539.84;;;9.23;51.42
57827;BME280;43656;57.746;11.780;2023-04-19T00:04:43;103537.28;;;9.22;51.60
57827;BME280;43656;57.746;11.780;2023-04-19T00:07:11;103540.06;;;9.20;52.06
57827;BME280;43656;57.746;11.780;2023-04-19T00:09:38;103501.28;;;9.02;51.95
57827;BME280;43656;57.746;11.780;2023-04-19T00:12:03;103539.59;;;9.15;52.29
57827;BME280;43656;57.746;11.780;2023-04-19T00:14:29;103534.59;;;9.10;52.18
57827;BME280;43656;57.746;11.780;2023-04-19T00:16:54;103531.53;;;9.04;52.30
57827;BME280;43656;57.746;11.780;2023-04-19T00:19:19;103535.44;;;9.00;52.42
57827;BME280;43656;57.746;11.780;2023-04-19T00:21:46;103543.75;;;8.97;52.80
57827;BME280;43656;57.746;11.780;2023-04-19T00:24:12;103539.59;;;8.92;52.96
57827;BME280;43656;57.746;11.780;2023-04-19T00:26:37;103534.72;;;8.86;53.26
57827;BME280;43656;57.746;11.780;2023-04-19T00:29:03;103536.69;;;8.84;52.60
57827;BME280;43656;57.746;11.780;2023-04-19T00:31:28;103541.66;;;8.78;52.77
57827;BME280;43656;57.746;11.780;2023-04-19T00:33:55;103533.25;;;8.71;52.81
57827;BME280;43656;57.746;11.780;2023-04-19T00:36:20;103514.78;;;8.55;53.68
57827;BME280;43656;57.746;11.780;2023-04-19T00:38:46;103521.75;;;8.58;53.83
57827;BME280;43656;57.746;11.780;2023-04-19T00:41:11;103523.31;;;8.60;53.70
57827;BME280;43656;57.746;11.780;2023-04-19T00:43:37;103527.34;;;8.55;54.11
57827;BME280;43656;57.746;11.780;2023-04-19T00:46:04;103520.63;;;8.49;55.07
57827;BME280;43656;57.746;11.780;2023-04-19T00:48:29;103528.22;;;8.55;53.56
57827;BME280;43656;57.746;11.780;2023-04-19T00:50:55;103526.63;;;8.53;54.13
57827;BME280;43656;57.746;11.780;2023-04-19T00:53:21;103535.03;;;8.48;54.57
57827;BME280;43656;57.746;11.780;2023-04-19T00:55:46;103527.72;;;8.26;54.99
57827;BME280;43656;57.746;11.780;2023-04-19T00:58:15;103529.66;;;8.24;55.14
57827;BME280;43656;57.746;11.780;2023-04-19T01:00:43;103531.00;;;8.18;55.32
57827;BME280;43656;57.746;11.780;2023-04-19T01:03:08;103526.34;;;8.20;55.96
57827;BME280;43656;57.746;11.780;2023-04-19T01:05:34;103531.63;;;8.22;55.91
57827;BME280;43656;57.746;11.780;2023-04-19T01:07:59;103528.47;;;8.28;55.91
57827;BME280;43656;57.746;11.780;2023-04-19T01:10:25;103533.84;;;8.28;55.76
57827;BME280;43656;57.746;11.780;2023-04-19T01:12:50;103513.06;;;8.19;55.86
57827;BME280;43656;57.746;11.780;2023-04-19T01:15:16;103513.78;;;8.21;55.36
57827;BME280;43656;57.746;11.780;2023-04-19T01:17:41;103534.88;;;8.38;55.37
57827;BME280;43656;57.746;11.780;2023-04-19T01:20:07;103541.16;;;8.37;55.66
57827;BME280;43656;57.746;11.780;2023-04-19T01:22:33;103540.31;;;8.37;54.86
57827;BME280;43656;57.746;11.780;2023-04-19T01:25:02;103533.34;;;8.34;54.63
57827;BME280;43656;57.746;11.780;2023-04-19T01:27:28;103547.34;;;8.27;55.21
57827;BME280;43656;57.746;11.780;2023-04-19T01:29:53;103545.03;;;8.22;54.98
57827;BME280;43656;57.746;11.780;2023-04-19T01:32:19;103542.28;;;8.11;54.87
57827;BME280;43656;57.746;11.780;2023-04-19T01:34:44;103543.84;;;8.02;55.24
57827;BME280;43656;57.746;11.780;2023-04-19T01:37:09;103561.78;;;8.02;55.74
57827;BME280;43656;57.746;11.780;2023-04-19T01:39:35;103561.47;;;7.93;55.86
57827;BME280;43656;57.746;11.780;2023-04-19T01:42:00;103556.78;;;7.84;56.22
57827;BME280;43656;57.746;11.780;2023-04-19T01:44:27;103551.66;;;7.81;56.46
57827;BME280;43656;57.746;11.780;2023-04-19T01:46:53;103552.13;;;7.75;56.96
57827;BME280;43656;57.746;11.780;2023-04-19T01:49:19;103544.63;;;7.67;56.83
57827;BME280;43656;57.746;11.780;2023-04-19T01:51:45;103539.63;;;7.63;57.22
57827;BME280;43656;57.746;11.780;2023-04-19T01:54:10;103559.88;;;7.67;57.17
57827;BME280;43656;57.746;11.780;2023-04-19T01:56:36;103543.03;;;7.65;57.50
57827;BME280;43656;57.746;11.780;2023-04-19T01:59:01;103547.81;;;7.85;56.52
57827;BME280;43656;57.746;11.780;2023-04-19T02:01:28;103532.00;;;7.69;56.87
57827;BME280;43656;57.746;11.780;2023-04-19T02:03:53;103551.03;;;7.77;57.14
57827;BME280;43656;57.746;11.780;2023-04-19T02:06:19;103538.16;;;7.83;57.21
57827;BME280;43656;57.746;11.780;2023-04-19T02:08:44;103539.00;;;7.83;56.81
57827;BME280;43656;57.746;11.780;2023-04-19T02:11:11;103552.94;;;7.88;56.80
57827;BME280;43656;57.746;11.780;2023-04-19T02:13:40;103541.22;;;7.89;56.78
57827;BME280;43656;57.746;11.780;2023-04-19T02:16:06;103538.66;;;7.88;56.43
57827;BME280;43656;57.746;11.780;2023-04-19T02:18:32;103543.75;;;7.80;56.34
57827;BME280;43656;57.746;11.780;2023-04-19T02:21:00;103522.50;;;7.52;56.86
57827;BME280;43656;57.746;11.780;2023-04-19T02:23:25;103544.44;;;7.58;56.82
57827;BME280;43656;57.746;11.780;2023-04-19T02:25:51;103548.78;;;7.47;57.24
57827;BME280;43656;57.746;11.780;2023-04-19T02:28:18;103533.03;;;7.43;56.95
57827;BME280;43656;57.746;11.780;2023-04-19T02:30:44;103538.22;;;7.33;57.39
57827;BME280;43656;57.746;11.780;2023-04-19T02:33:09;103531.66;;;7.37;56.99
57827;BME280;43656;57.746;11.780;2023-04-19T02:35:35;103499.81;;;7.09;57.76
57827;BME280;43656;57.746;11.780;2023-04-19T02:38:01;103532.72;;;7.35;57.73
57827;BME280;43656;57.746;11.780;2023-04-19T02:40:28;103505.88;;;7.23;58.11
57827;BME280;43656;57.746;11.780;2023-04-19T02:42:53;103535.41;;;7.35;58.05
57827;BME280;43656;57.746;11.780;2023-04-19T02:45:19;103530.63;;;7.27;58.58
57827;BME280;43656;57.746;11.780;2023-04-19T02:47:44;103534.69;;;7.33;58.94
57827;BME280;43656;57.746;11.780;2023-04-19T02:50:11;103500.66;;;7.22;58.48
57827;BME280;43656;57.746;11.780;2023-04-19T02:52:37;103516.56;;;7.36;58.52
57827;BME280;43656;57.746;11.780;2023-04-19T02:55:03;103526.50;;;7.47;59.30
57827;BME280;43656;57.746;11.780;2023-04-19T02:57:29;103514.34;;;7.54;58.87
57827;BME280;43656;57.746;11.780;2023-04-19T02:59:54;103484.41;;;7.36;58.60
57827;BME280;43656;57.746;11.780;2023-04-19T03:02:20;103514.16;;;7.44;59.36
57827;BME280;43656;57.746;11.780;2023-04-19T03:04:45;103509.03;;;7.41;58.82
57827;BME280;43656;57.746;11.780;2023-04-19T03:07:11;103518.09;;;7.51;58.94
57827;BME280;43656;57.746;11.780;2023-04-19T03:09:37;103515.16;;;7.43;59.38
57827;BME280;43656;57.746;11.780;2023-04-19T03:12:02;103509.31;;;7.62;58.66
57827;BME280;43656;57.746;11.780;2023-04-19T03:14:28;103518.59;;;7.69;57.96
57827;BME280;43656;57.746;11.780;2023-04-19T03:16:53;103518.59;;;7.69;58.76
57827;BME280;43656;57.746;11.780;2023-04-19T03:19:19;103524.03;;;7.44;60.53
57827;BME280;43656;57.746;11.780;2023-04-19T03:21:44;103524.16;;;7.42;60.84
57827;BME280;43656;57.746;11.780;2023-04-19T03:24:10;103416.75;;;6.85;60.60
57827;BME280;43656;57.746;11.780;2023-04-19T03:26:36;103522.84;;;7.48;61.19
57827;BME280;43656;57.746;11.780;2023-04-19T03:29:02;103518.03;;;7.40;60.86
57827;BME280;43656;57.746;11.780;2023-04-19T03:31:27;103515.59;;;7.37;60.67
57827;BME280;43656;57.746;11.780;2023-04-19T03:33:53;103525.22;;;7.40;61.22
57827;BME280;43656;57.746;11.780;2023-04-19T03:36:18;103528.94;;;7.50;60.61
57827;BME280;43656;57.746;11.780;2023-04-19T03:38:44;103520.69;;;7.53;60.28
57827;BME280;43656;57.746;11.780;2023-04-19T03:41:20;103511.81;;;7.52;60.19
57827;BME280;43656;57.746;11.780;2023-04-19T03:43:45;103514.69;;;7.49;60.12
57827;BME280;43656;57.746;11.780;2023-04-19T03:46:11;103517.25;;;7.51;60.09
57827;BME280;43656;57.746;11.780;2023-04-19T03:48:36;103510.06;;;7.51;60.06
57827;BME280;43656;57.746;11.780;2023-04-19T03:51:02;103507.38;;;7.51;59.64
57827;BME280;43656;57.746;11.780;2023-04-19T03:53:27;103509.84;;;7.54;59.69
57827;BME280;43656;57.746;11.780;2023-04-19T03:55:53;103479.56;;;7.41;59.35
57827;BME280;43656;57.746;11.780;2023-04-19T03:58:18;103506.97;;;7.45;60.24
57827;BME280;43656;57.746;11.780;2023-04-19T04:00:44;103507.47;;;7.39;60.63
57827;BME280;43656;57.746;11.780;2023-04-19T04:03:09;103501.75;;;7.43;60.13
57827;BME280;43656;57.746;11.780;2023-04-19T04:05:35;103503.03;;;7.38;60.26
57827;BME280;43656;57.746;11.780;2023-04-19T04:08:00;103499.19;;;7.42;60.34
57827;BME280;43656;57.746;11.780;2023-04-19T04:10:26;103501.75;;;7.43;60.54
57827;BME280;43656;57.746;11.780;2023-04-19T04:12:51;103496.13;;;7.83;59.45
57827;BME280;43656;57.746;11.780;2023-04-19T04:15:17;103507.88;;;8.75;56.94
57827;BME280;43656;57.746;11.780;2023-04-19T04:17:42;103496.88;;;9.01;55.82
57827;BME280;43656;57.746;11.780;2023-04-19T04:20:08;103511.13;;;9.24;55.21
57827;BME280;43656;57.746;11.780;2023-04-19T04:22:34;103487.59;;;9.71;53.28
57827;BME280;43656;57.746;11.780;2023-04-19T04:24:59;103507.78;;;9.97;52.68
57827;BME280;43656;57.746;11.780;2023-04-19T04:27:26;103512.03;;;10.32;51.87
57827;BME280;43656;57.746;11.780;2023-04-19T04:29:51;103499.03;;;10.37;51.67
57827;BME280;43656;57.746;11.780;2023-04-19T04:32:17;103480.53;;;10.74;50.05
57827;BME280;43656;57.746;11.780;2023-04-19T04:34:47;103496.75;;;11.34;48.76
57827;BME280;43656;57.746;11.780;2023-04-19T04:37:13;103474.69;;;11.60;48.34
57827;BME280;43656;57.746;11.780;2023-04-19T04:39:38;103493.16;;;11.84;47.72
57827;BME280;43656;57.746;11.780;2023-04-19T04:42:05;103479.91;;;11.61;47.61
57827;BME280;43656;57.746;11.780;2023-04-19T04:44:35;103491.16;;;12.15;46.81
57827;BME280;43656;57.746;11.780;2023-04-19T04:47:01;103496.16;;;11.90;46.47
57827;BME280;43656;57.746;11.780;2023-04-19T04:49:28;103495.31;;;11.90;46.57
57827;BME280;43656;57.746;11.780;2023-04-19T04:51:54;103494.25;;;11.71;47.73
57827;BME280;43656;57.746;11.780;2023-04-19T04:54:20;103488.31;;;11.77;47.22
57827;BME280;43656;57.746;11.780;2023-04-19T04:56:46;103486.91;;;11.83;47.08
57827;BME280;43656;57.746;11.780;2023-04-19T04:59:11;103480.78;;;11.81;46.94
57827;BME280;43656;57.746;11.780;2023-04-19T05:01:36;103502.91;;;11.75;47.05
57827;BME280;43656;57.746;11.780;2023-04-19T05:04:02;103501.38;;;11.72;47.10
57827;BME280;43656;57.746;11.780;2023-04-19T05:06:27;103493.66;;;11.48;47.70
57827;BME280;43656;57.746;11.780;2023-04-19T05:08:53;103503.38;;;11.80;47.17
57827;BME280;43656;57.746;11.780;2023-04-19T05:11:19;103507.34;;;11.66;46.66
57827;BME280;43656;57.746;11.780;2023-04-19T05:13:44;103510.09;;;11.95;46.80
57827;BME280;43656;57.746;11.780;2023-04-19T05:16:10;103508.66;;;12.01;46.54
57827;BME280;43656;57.746;11.780;2023-04-19T05:18:35;103510.28;;;12.51;45.48
57827;BME280;43656;57.746;11.780;2023-04-19T05:21:01;103486.94;;;11.93;45.68
57827;BME280;43656;57.746;11.780;2023-04-19T05:23:26;103491.44;;;12.21;45.18
57827;BME280;43656;57.746;11.780;2023-04-19T05:25:51;103492.59;;;11.11;47.82
57827;BME280;43656;57.746;11.780;2023-04-19T05:28:17;103514.00;;;10.30;49.61
57827;BME280;43656;57.746;11.780;2023-04-19T05:30:42;103509.25;;;9.58;52.39
57827;BME280;43656;57.746;11.780;2023-04-19T05:33:08;103470.00;;;9.12;54.47
57827;BME280;43656;57.746;11.780;2023-04-19T05:35:33;103505.66;;;9.25;54.62
57827;BME280;43656;57.746;11.780;2023-04-19T05:37:59;103509.78;;;9.29;54.98
57827;BME280;43656;57.746;11.780;2023-04-19T05:40:24;103498.94;;;9.08;56.29
57827;BME280;43656;57.746;11.780;2023-04-19T05:42:50;103511.75;;;9.16;56.17
57827;BME280;43656;57.746;11.780;2023-04-19T05:45:15;103498.94;;;9.20;55.66
57827;BME280;43656;57.746;11.780;2023-04-19T05:47:42;103498.53;;;9.35;55.46
57827;BME280;43656;57.746;11.780;2023-04-19T05:50:08;103497.56;;;9.48;55.08
57827;BME280;43656;57.746;11.780;2023-04-19T05:52:34;103488.84;;;9.55;54.13
57827;BME280;43656;57.746;11.780;2023-04-19T05:54:59;103495.97;;;9.45;54.79
57827;BME280;43656;57.746;11.780;2023-04-19T05:57:25;103499.88;;;9.84;53.80
57827;BME280;43656;57.746;11.780;2023-04-19T05:59:50;103497.78;;;9.88;53.66
57827;BME280;43656;57.746;11.780;2023-04-19T06:02:16;103501.91;;;9.92;52.77
57827;BME280;43656;57.746;11.780;2023-04-19T06:04:41;103493.41;;;10.08;52.49
57827;BME280;43656;57.746;11.780;2023-04-19T06:07:07;103498.56;;;10.00;52.50
57827;BME280;43656;57.746;11.780;2023-04-19T06:09:32;103487.88;;;9.88;52.71
57827;BME280;43656;57.746;11.780;2023-04-19T06:11:58;103496.44;;;9.94;53.34
57827;BME280;43656;57.746;11.780;2023-04-19T06:14:26;103504.59;;;9.92;52.60
57827;BME280;43656;57.746;11.780;2023-04-19T06:16:53;103498.22;;;9.93;53.46
57827;BME280;43656;57.746;11.780;2023-04-19T06:19:18;103499.91;;;10.05;52.49
57827;BME280;43656;57.746;11.780;2023-04-19T06:21:44;103502.13;;;10.00;53.17
57827;BME280;43656;57.746;11.780;2023-04-19T06:24:10;103495.63;;;10.03;52.88
57827;BME280;43656;57.746;11.780;2023-04-19T06:26:35;103499.13;;;10.15;52.38
57827;BME280;43656;57.746;11.780;2023-04-19T06:29:01;103481.31;;;10.02;52.19
57827;BME280;43656;57.746;11.780;2023-04-19T06:31:26;103498.97;;;10.16;52.33
57827;BME280;43656;57.746;11.780;2023-04-19T06:33:52;103487.13;;;10.40;51.83
57827;BME280;43656;57.746;11.780;2023-04-19T06:36:17;103495.84;;;10.11;52.19
57827;BME280;43656;57.746;11.780;2023-04-19T06:38:42;103501.91;;;10.45;51.21
57827;BME280;43656;57.746;11.780;2023-04-19T06:41:11;103493.38;;;10.61;51.01
57827;BME280;43656;57.746;11.780;2023-04-19T06:43:37;103497.06;;;10.60;50.66
57827;BME280;43656;57.746;11.780;2023-04-19T06:46:04;103485.97;;;10.53;50.76
57827;BME280;43656;57.746;11.780;2023-04-19T06:48:32;103485.75;;;10.66;50.31
57827;BME280;43656;57.746;11.780;2023-04-19T06:50:58;103497.78;;;10.93;50.18
57827;BME280;43656;57.746;11.780;2023-04-19T06:53:23;103488.47;;;10.76;50.13
57827;BME280;43656;57.746;11.780;2023-04-19T06:55:57;103471.34;;;10.77;49.66
57827;BME280;43656;57.746;11.780;2023-04-19T06:58:23;103487.69;;;10.95;49.70
57827;BME280;43656;57.746;11.780;2023-04-19T07:00:48;103486.63;;;11.07;49.29
57827;BME280;43656;57.746;11.780;2023-04-19T07:03:14;103476.19;;;11.33;48.92
57827;BME280;43656;57.746;11.780;2023-04-19T07:05:39;103478.19;;;11.41;48.58
57827;BME280;43656;57.746;11.780;2023-04-19T07:08:05;103472.69;;;11.81;48.38
57827;BME280;43656;57.746;11.780;2023-04-19T07:10:31;103472.56;;;11.63;48.11
57827;BME280;43656;57.746;11.780;2023-04-19T07:12:57;103466.56;;;11.40;48.19
57827;BME280;43656;57.746;11.780;2023-04-19T07:15:22;103471.75;;;11.22;48.61
57827;BME280;43656;57.746;11.780;2023-04-19T07:17:47;103481.44;;;11.35;48.17
57827;BME280;43656;57.746;11.780;2023-04-19T07:20:13;103471.81;;;11.42;47.93
57827;BME280;43656;57.746;11.780;2023-04-19T07:22:38;103477.50;;;11.77;48.06
57827;BME280;43656;57.746;11.780;2023-04-19T07:25:04;103479.53;;;11.85;48.24
57827;BME280;43656;57.746;11.780;2023-04-19T07:27:30;103484.66;;;11.98;47.74
57827;BME280;43656;57.746;11.780;2023-04-19T07:29:55;103475.81;;;11.76;48.04
57827;BME280;43656;57.746;11.780;2023-04-19T07:32:21;103449.56;;;11.59;48.31
57827;BME280;43656;57.746;11.780;2023-04-19T07:34:46;103471.59;;;11.93;47.68
57827;BME280;43656;57.746;11.780;2023-04-19T07:37:12;103472.09;;;12.36;47.10
57827;BME280;43656;57.746;11.780;2023-04-19T07:39:38;103465.09;;;12.53;46.69
57827;BME280;43656;57.746;11.780;2023-04-19T07:42:03;103435.41;;;12.43;45.96
57827;BME280;43656;57.746;11.780;2023-04-19T07:44:29;103468.91;;;12.60;45.71
57827;BME280;43656;57.746;11.780;2023-04-19T07:46:55;103466.94;;;12.52;45.15
57827;BME280;43656;57.746;11.780;2023-04-19T07:49:20;103456.88;;;12.35;45.78
57827;BME280;43656;57.746;11.780;2023-04-19T07:51:46;103457.06;;;12.70;45.20
57827;BME280;43656;57.746;11.780;2023-04-19T07:54:11;103458.66;;;12.63;45.26
57827;BME280;43656;57.746;11.780;2023-04-19T07:56:37;103458.13;;;12.87;45.12
57827;BME280;43656;57.746;11.780;2023-04-19T07:59:03;103457.78;;;12.73;44.88
57827;BME280;43656;57.746;11.780;2023-04-19T08:01:29;103457.22;;;12.69;45.18
57827;BME280;43656;57.746;11.780;2023-04-19T08:03:55;103453.19;;;12.83;44.39
57827;BME280;43656;57.746;11.780;2023-04-19T08:06:20;103444.56;;;12.97;45.00
57827;BME280;43656;57.746;11.780;2023-04-19T08:08:47;103463.59;;;13.33;45.23
57827;BME280;43656;57.746;11.780;2023-04-19T08:11:12;103459.28;;;13.12;44.82
57827;BME280;43656;57.746;11.780;2023-04-19T08:13:38;103454.38;;;12.98;44.69
57827;BME280;43656;57.746;11.780;2023-04-19T08:16:04;103446.22;;;13.08;44.35
57827;BME280;43656;57.746;11.780;2023-04-19T08:18:30;103452.88;;;13.41;43.92
57827;BME280;43656;57.746;11.780;2023-04-19T08:20:55;103432.84;;;13.34;43.68
57827;BME280;43656;57.746;11.780;2023-04-19T08:23:22;103460.50;;;13.28;43.41
57827;BME280;43656;57.746;11.780;2023-04-19T08:25:48;103443.16;;;13.48;42.87
57827;BME280;43656;57.746;11.780;2023-04-19T08:28:14;103437.91;;;13.65;43.12
57827;BME280;43656;57.746;11.780;2023-04-19T08:30:39;103448.53;;;13.84;42.62
57827;BME280;43656;57.746;11.780;2023-04-19T08:33:05;103440.41;;;14.02;42.31
57827;BME280;43656;57.746;11.780;2023-04-19T08:35:30;103448.22;;;13.87;42.13
57827;BME280;43656;57.746;11.780;2023-04-19T08:37:56;103447.75;;;13.74;42.24
57827;BME280;43656;57.746;11.780;2023-04-19T08:40:22;103416.25;;;13.91;42.26
57827;BME280;43656;57.746;11.780;2023-04-19T08:42:48;103444.97;;;13.83;42.33
57827;BME280;43656;57.746;11.780;2023-04-19T08:45:15;103437.75;;;14.10;41.80
57827;BME280;43656;57.746;11.780;2023-04-19T08:47:41;103438.50;;;13.94;42.03
57827;BME280;43656;57.746;11.780;2023-04-19T08:50:07;103431.78;;;14.06;41.57
57827;BME280;43656;57.746;11.780;2023-04-19T08:52:34;103408.75;;;14.02;42.07
57827;BME280;43656;57.746;11.780;2023-04-19T08:55:05;103413.97;;;14.22;41.86
57827;BME280;43656;57.746;11.780;2023-04-19T08:57:31;103410.66;;;14.36;41.92
57827;BME280;43656;57.746;11.780;2023-04-19T08:59:58;103404.66;;;14.85;41.15
57827;BME280;43656;57.746;11.780;2023-04-19T09:02:25;103414.28;;;14.71;40.86
57827;BME280;43656;57.746;11.780;2023-04-19T09:04:50;103419.19;;;14.49;41.29
57827;BME280;43656;57.746;11.780;2023-04-19T09:07:26;103404.91;;;14.57;39.38
57827;BME280;43656;57.746;11.780;2023-04-19T09:10:07;103391.81;;;15.03;39.55
57827;BME280;43656;57.746;11.780;2023-04-19T09:12:34;103392.09;;;14.75;39.42
57827;BME280;43656;57.746;11.780;2023-04-19T09:15:01;103373.53;;;14.97;39.72
57827;BME280;43656;57.746;11.780;2023-04-19T09:17:33;103373.03;;;15.10;38.87
57827;BME280;43656;57.746;11.780;2023-04-19T09:19:58;103372.09;;;15.43;38.65
57827;BME280;43656;57.746;11.780;2023-04-19T09:22:24;103380.84;;;15.13;39.23
57827;BME280;43656;57.746;11.780;2023-04-19T09:24:50;103364.63;;;15.37;38.60
57827;BME280;43656;57.746;11.780;2023-04-19T09:27:32;103375.59;;;15.19;38.27
57827;BME280;43656;57.746;11.780;2023-04-19T09:30:02;103366.47;;;15.20;37.70
57827;BME280;43656;57.746;11.780;2023-04-19T09:32:28;103357.81;;;15.66;37.98
57827;BME280;43656;57.746;11.780;2023-04-19T09:35:09;103357.47;;;15.28;37.89
57827;BME280;43656;57.746;11.780;2023-04-19T09:37:34;103355.13;;;15.58;35.89
57827;BME280;43656;57.746;11.780;2023-04-19T09:40:20;103352.91;;;15.53;35.14
57827;BME280;43656;57.746;11.780;2023-04-19T09:42:46;103355.94;;;15.42;34.01
57827;BME280;43656;57.746;11.780;2023-04-19T09:45:11;103323.91;;;15.21;34.39
57827;BME280;43656;57.746;11.780;2023-04-19T09:47:37;103346.97;;;15.41;34.08
57827;BME280;43656;57.746;11.780;2023-04-19T09:50:09;103336.47;;;15.30;32.88
57827;BME280;43656;57.746;11.780;2023-04-19T09:52:36;103314.75;;;15.55;33.69
57827;BME280;43656;57.746;11.780;2023-04-19T09:55:04;103315.75;;;15.04;33.63
57827;BME280;43656;57.746;11.780;2023-04-19T09:57:31;103334.75;;;15.54;33.53
57827;BME280;43656;57.746;11.780;2023-04-19T09:59:58;103332.03;;;15.29;32.36
57827;BME280;43656;57.746;11.780;2023-04-19T10:02:28;103332.72;;;15.47;32.95
57827;BME280;43656;57.746;11.780;2023-04-19T10:04:56;103329.00;;;15.40;32.97
57827;BME280;43656;57.746;11.780;2023-04-19T10:07:22;103307.09;;;15.58;33.28
57827;BME280;43656;57.746;11.780;2023-04-19T10:09:49;103309.31;;;15.22;33.07
57827;BME280;43656;57.746;11.780;2023-04-19T10:12:15;103318.50;;;15.70;32.80
57827;BME280;43656;57.746;11.780;2023-04-19T10:14:41;103320.69;;;15.42;33.09
57827;BME280;43656;57.746;11.780;2023-04-19T10:17:07;103307.97;;;15.83;32.59
57827;BME280;43656;57.746;11.780;2023-04-19T10:19:34;103292.00;;;15.64;32.35
57827;BME280;43656;57.746;11.780;2023-04-19T10:22:01;103277.59;;;15.55;32.68
57827;BME280;43656;57.746;11.780;2023-04-19T10:24:32;103321.47;;;16.08;32.50
57827;BME280;43656;57.746;11.780;2023-04-19T10:27:12;103310.97;;;15.96;32.19
57827;BME280;43656;57.746;11.780;2023-04-19T10:30:01;103298.13;;;15.41;32.91
57827;BME280;43656;57.746;11.780;2023-04-19T10:32:29;103305.41;;;15.49;32.54
57827;BME280;43656;57.746;11.780;2023-04-19T10:35:00;103301.16;;;15.87;32.34
57827;BME280;43656;57.746;11.780;2023-04-19T10:37:27;103280.16;;;15.73;32.51
57827;BME280;43656;57.746;11.780;2023-04-19T10:39:55;103308.50;;;16.26;32.33
57827;BME280;43656;57.746;11.780;2023-04-19T10:42:21;103304.88;;;16.03;33.03
57827;BME280;43656;57.746;11.780;2023-04-19T10:47:50;103279.88;;;15.99;32.45
57827;BME280;43656;57.746;11.780;2023-04-19T10:50:16;103281.00;;;16.29;32.66
57827;BME280;43656;57.746;11.780;2023-04-19T10:52:42;103286.56;;;16.36;32.45
57827;BME280;43656;57.746;11.780;2023-04-19T10:55:07;103283.84;;;16.36;32.17
57827;BME280;43656;57.746;11.780;2023-04-19T10:58:01;103275.56;;;16.60;31.43
57827;BME280;43656;57.746;11.780;2023-04-19T11:00:30;103272.06;;;16.83;31.58
57827;BME280;43656;57.746;11.780;2023-04-19T11:03:49;103269.00;;;16.47;32.27
57827;BME280;43656;57.746;11.780;2023-04-19T11:06:18;103264.56;;;16.23;32.13
57827;BME280;43656;57.746;11.780;2023-04-19T11:08:45;103265.31;;;16.39;32.29
57827;BME280;43656;57.746;11.780;2023-04-19T11:11:12;103248.53;;;16.36;31.87
57827;BME280;43656;57.746;11.780;2023-04-19T11:13:41;103261.50;;;16.49;32.01
57827;BME280;43656;57.746;11.780;2023-04-19T11:16:07;103255.25;;;16.79;32.16
57827;BME280;43656;57.746;11.780;2023-04-19T11:18:33;103262.41;;;16.95;31.07
57827;BME280;43656;57.746;11.780;2023-04-19T11:20:59;103259.06;;;16.93;31.06
57827;BME280;43656;57.746;11.780;2023-04-19T11:23:25;103246.16;;;17.10;30.98
57827;BME280;43656;57.746;11.780;2023-04-19T11:25:51;103216.31;;;17.02;31.20
57827;BME280;43656;57.746;11.780;2023-04-19T11:28:20;103239.88;;;17.09;31.45
57827;BME280;43656;57.746;11.780;2023-04-19T11:30:48;103248.22;;;17.08;30.73
57827;BME280;43656;57.746;11.780;2023-04-19T11:33:14;103226.91;;;16.42;29.97
57827;BME280;43656;57.746;11.780;2023-04-19T11:35:43;103255.59;;;16.76;31.20
57827;BME280;43656;57.746;11.780;2023-04-19T11:38:11;103245.56;;;17.00;30.76
57827;BME280;43656;57.746;11.780;2023-04-19T11:40:37;103242.50;;;16.72;30.46
57827;BME280;43656;57.746;11.780;2023-04-19T11:43:03;103245.41;;;16.70;31.00
57827;BME280;43656;57.746;11.780;2023-04-19T11:45:34;103216.59;;;16.61;30.22
57827;BME280;43656;57.746;11.780;2023-04-19T11:48:01;103237.13;;;16.32;30.45
57827;BME280;43656;57.746;11.780;2023-04-19T11:50:40;103240.63;;;16.80;30.31
57827;BME280;43656;57.746;11.780;2023-04-19T11:53:32;103253.22;;;16.73;29.56
57827;BME280;43656;57.746;11.780;2023-04-19T11:56:05;103238.31;;;16.38;30.35
57827;BME280;43656;57.746;11.780;2023-04-19T12:03:34;103232.72;;;16.39;30.93
57827;BME280;43656;57.746;11.780;2023-04-19T12:06:01;103226.47;;;16.85;31.00
57827;BME280;43656;57.746;11.780;2023-04-19T12:08:37;103224.22;;;16.88;30.22
57827;BME280;43656;57.746;11.780;2023-04-19T12:11:04;103228.22;;;17.01;30.44
57827;BME280;43656;57.746;11.780;2023-04-19T12:13:31;103220.19;;;16.84;29.87
57827;BME280;43656;57.746;11.780;2023-04-19T12:15:56;103200.25;;;17.30;29.83
57827;BME280;43656;57.746;11.780;2023-04-19T12:18:22;103216.09;;;17.26;29.98
57827;BME280;43656;57.746;11.780;2023-04-19T12:20:49;103215.38;;;17.62;29.71
57827;BME280;43656;57.746;11.780;2023-04-19T12:23:17;103222.19;;;17.28;30.37
57827;BME280;43656;57.746;11.780;2023-04-19T12:25:45;103210.56;;;17.34;31.14
57827;BME280;43656;57.746;11.780;2023-04-19T12:28:11;103216.72;;;17.28;30.56
57827;BME280;43656;57.746;11.780;2023-04-19T12:30:38;103211.28;;;17.13;30.68
57827;BME280;43656;57.746;11.780;2023-04-19T12:33:07;103204.31;;;17.11;31.09
57827;BME280;43656;57.746;11.780;2023-04-19T12:35:33;103218.03;;;16.80;31.46
57827;BME280;43656;57.746;11.780;2023-04-19T12:37:59;103200.38;;;16.99;31.56
57827;BME280;43656;57.746;11.780;2023-04-19T12:40:26;103211.38;;;17.20;31.51
57827;BME280;43656;57.746;11.780;2023-04-19T12:42:52;103203.41;;;17.19;31.52
57827;BME280;43656;57.746;11.780;2023-04-19T12:45:18;103198.97;;;17.03;32.17
57827;BME280;43656;57.746;11.780;2023-04-19T12:47:45;103208.34;;;17.00;31.53
57827;BME280;43656;57.746;11.780;2023-04-19T12:50:12;103176.94;;;17.12;33.09